Route Details

Aircraft Information
Group: Boeing 737 Only
Types: B738
Route Data
Distance: 806nm
Duration: 2h 50m
Origin METAR: MHTG 170900Z 00000KT 5000 VCSH FEW015 BKN028 20/18 Q1018 A3006 NOSIG
Dest. METAR: KMIA 171053Z 21004KT 10SM FEW025 26/23 A2995 RMK AO2 SLP143 T02610233 $
Freight Data
(for Aug 18, 2022)
Load Factor:
86%
Manifested Cargo: 43,246lbs
Financial History
Total Freight: 34,110lbs
Average Load: 0lbs/flt
Fuel Used: 9,835lbs
Avg. Fuel Used: 0lbs/flt
Fuel Expense: $5,311
Avg. Fuel Expense: $0
Avg. Fuel Cost: $0/lbs
Total Gross Income: $106,423
Pilot Pay: $269
Total Expenses: $27,225
Total Revenue: $72,985
Average Revenue: $0

Capitol Logistics 776




MHTG
Toncontín International Airport
Tegucigalpa, HN
KMIA
Miami International Airport
Miami, US

Activity Log

Date Flight Route Aircraft Duration
08/02/2022 CPX776 BTO1 BTO UZ498 PABEL UL471 FARKO DCT MTH DVALL3 B738 2h 06m